createdAt,value
2023-05-04T00:01:04.676Z,7.50
2023-05-04T00:03:32.767Z,7.50
2023-05-04T00:06:00.816Z,7.50
2023-05-04T00:08:28.626Z,7.50
2023-05-04T00:10:56.759Z,7.44
2023-05-04T00:13:24.708Z,7.40
2023-05-04T00:15:52.870Z,7.40
2023-05-04T00:18:20.832Z,7.34
2023-05-04T00:20:48.636Z,7.30
2023-05-04T00:23:16.376Z,7.30
2023-05-04T00:25:44.303Z,7.30
2023-05-04T00:28:12.300Z,7.20
2023-05-04T00:30:40.109Z,7.20
2023-05-04T00:33:08.320Z,7.20
2023-05-04T00:35:36.532Z,7.20
2023-05-04T00:38:05.605Z,7.20
2023-05-04T00:40:35.189Z,7.20
2023-05-04T00:43:03.103Z,7.20
2023-05-04T00:45:32.048Z,7.20
2023-05-04T00:48:00.382Z,7.10
2023-05-04T00:50:28.918Z,7.00
2023-05-04T00:53:01.354Z,7.00
2023-05-04T00:55:29.340Z,7.00
2023-05-04T00:57:57.279Z,7.00
2023-05-04T01:00:25.346Z,7.00
2023-05-04T01:02:53.343Z,7.00
2023-05-04T01:05:26.843Z,7.00
2023-05-04T01:08:13.413Z,7.00
2023-05-04T01:10:58.225Z,6.92
2023-05-04T01:13:28.061Z,6.90
2023-05-04T01:15:55.921Z,6.90
2023-05-04T01:18:23.780Z,6.90
2023-05-04T01:20:51.600Z,6.90
2023-05-04T01:23:19.634Z,6.84
2023-05-04T01:26:27.305Z,6.80
2023-05-04T01:29:16.026Z,6.80
2023-05-04T01:31:46.756Z,6.70
2023-05-04T01:34:16.542Z,6.70
2023-05-04T01:36:45.642Z,6.60
2023-05-04T01:39:13.585Z,6.60
2023-05-04T01:41:42.189Z,6.60
2023-05-04T01:44:10.043Z,6.50
2023-05-04T01:46:38.443Z,6.48
2023-05-04T01:49:08.049Z,6.40
2023-05-04T01:51:35.870Z,6.40
2023-05-04T01:54:03.798Z,6.32
2023-05-04T01:56:32.260Z,6.30
2023-05-04T01:59:00.253Z,6.20
2023-05-04T02:01:28.258Z,6.20
2023-05-04T02:03:56.221Z,6.10
2023-05-04T02:06:24.703Z,6.10
2023-05-04T02:08:53.390Z,6.10
2023-05-04T02:11:21.709Z,6.10
2023-05-04T02:13:49.548Z,6.10
2023-05-04T02:16:17.492Z,6.04
2023-05-04T02:18:46.555Z,6.00
2023-05-04T02:21:14.667Z,6.00
2023-05-04T02:23:44.926Z,5.98
2023-05-04T02:26:13.061Z,5.90
2023-05-04T02:28:40.982Z,5.90
2023-05-04T02:31:10.302Z,5.90
2023-05-04T02:33:38.109Z,5.90
2023-05-04T02:36:06.509Z,5.90
2023-05-04T02:38:34.278Z,5.90
2023-05-04T02:41:02.163Z,5.90
2023-05-04T02:43:30.044Z,5.90
2023-05-04T02:45:57.974Z,5.90
2023-05-04T02:48:26.096Z,5.86
2023-05-04T02:50:54.156Z,5.88
2023-05-04T02:53:22.932Z,5.80
2023-05-04T02:55:51.140Z,5.80
2023-05-04T02:58:19.100Z,5.80
2023-05-04T03:00:47.087Z,5.70
2023-05-04T03:03:15.117Z,5.70
2023-05-04T03:05:43.138Z,5.60
2023-05-04T03:08:11.405Z,5.60
2023-05-04T03:10:39.160Z,5.60
2023-05-04T03:13:07.246Z,5.60
2023-05-04T03:15:35.698Z,5.60
2023-05-04T03:18:03.780Z,5.60
2023-05-04T03:20:32.212Z,5.60
2023-05-04T03:23:00.428Z,5.60
2023-05-04T03:25:28.293Z,5.60
2023-05-04T03:27:57.494Z,5.60
2023-05-04T03:30:25.488Z,5.60
2023-05-04T03:32:55.017Z,5.50
2023-05-04T03:35:28.974Z,5.50
2023-05-04T03:37:57.295Z,5.60
2023-05-04T03:40:25.112Z,5.60
2023-05-04T03:42:53.774Z,5.70
2023-05-04T03:45:23.809Z,5.70
2023-05-04T03:47:52.181Z,5.78
2023-05-04T03:50:21.623Z,5.80
2023-05-04T03:52:50.525Z,5.80
2023-05-04T03:55:19.277Z,5.80
2023-05-04T03:57:49.754Z,5.80
2023-05-04T04:00:18.457Z,5.80
2023-05-04T04:02:49.957Z,5.80
2023-05-04T04:05:20.099Z,5.90
2023-05-04T04:07:48.716Z,5.90
2023-05-04T04:10:16.886Z,6.00
2023-05-04T04:12:44.721Z,6.00
2023-05-04T04:15:12.795Z,6.00
2023-05-04T04:17:40.977Z,6.10
2023-05-04T04:20:09.948Z,6.10
2023-05-04T04:22:37.685Z,6.10
2023-05-04T04:25:05.582Z,6.12
2023-05-04T04:27:33.406Z,6.20
2023-05-04T04:30:01.388Z,6.20
2023-05-04T04:32:29.282Z,6.30
2023-05-04T04:34:57.117Z,6.40
2023-05-04T04:37:25.045Z,6.40
2023-05-04T04:39:53.478Z,6.50
2023-05-04T04:42:21.336Z,6.54
2023-05-04T04:44:49.874Z,6.62
2023-05-04T04:47:18.385Z,6.70
2023-05-04T04:49:46.258Z,6.70
2023-05-04T04:52:14.127Z,6.80
2023-05-04T04:54:41.999Z,6.80
2023-05-04T04:57:10.410Z,6.88
2023-05-04T04:59:38.800Z,6.90
2023-05-04T05:02:06.631Z,6.90
2023-05-04T05:04:34.600Z,7.00
2023-05-04T05:07:02.766Z,7.00
2023-05-04T05:09:30.749Z,7.10
2023-05-04T05:11:58.642Z,7.20
2023-05-04T05:14:27.859Z,7.34
2023-05-04T05:16:55.660Z,7.48
2023-05-04T05:19:23.571Z,7.60
2023-05-04T05:21:51.753Z,7.70
2023-05-04T05:24:19.529Z,7.90
2023-05-04T05:26:47.314Z,8.00
2023-05-04T05:29:15.695Z,8.26
2023-05-04T05:31:43.469Z,8.86
2023-05-04T05:34:11.378Z,9.40
2023-05-04T05:36:39.232Z,9.94
2023-05-04T05:39:07.039Z,10.40
2023-05-04T05:41:34.857Z,10.90
2023-05-04T05:44:02.926Z,11.48
2023-05-04T05:46:30.767Z,11.94
2023-05-04T05:48:58.719Z,12.40
2023-05-04T05:51:26.564Z,12.72
2023-05-04T05:53:54.327Z,13.00
2023-05-04T05:56:22.353Z,13.70
2023-05-04T05:58:53.054Z,13.80
2023-05-04T06:01:20.795Z,13.60
2023-05-04T06:03:48.815Z,13.36
2023-05-04T06:06:17.387Z,13.04
2023-05-04T06:08:45.267Z,12.70
2023-05-04T06:11:13.110Z,12.60
2023-05-04T06:13:40.941Z,12.42
2023-05-04T06:16:11.003Z,12.40
2023-05-04T06:18:38.921Z,12.88
2023-05-04T06:21:06.846Z,13.52
2023-05-04T06:23:34.747Z,14.18
2023-05-04T06:26:06.017Z,14.72
2023-05-04T06:28:35.474Z,15.60
2023-05-04T06:31:03.840Z,16.42
2023-05-04T06:33:31.764Z,17.04
2023-05-04T06:35:59.632Z,17.60
2023-05-04T06:38:27.494Z,18.22
2023-05-04T06:40:55.813Z,18.54
2023-05-04T06:43:23.634Z,18.20
2023-05-04T06:45:51.442Z,18.30
2023-05-04T06:48:19.589Z,19.10
2023-05-04T06:50:47.444Z,19.50
2023-05-04T06:53:15.233Z,19.16
2023-05-04T06:55:43.029Z,18.58
2023-05-04T06:58:11.724Z,18.10
2023-05-04T07:00:41.804Z,17.70
2023-05-04T07:03:09.679Z,17.32
2023-05-04T07:05:37.857Z,16.96
2023-05-04T07:08:06.517Z,16.68
2023-05-04T07:10:34.314Z,16.40
2023-05-04T07:13:02.124Z,16.10
2023-05-04T07:15:30.350Z,15.88
2023-05-04T07:17:58.233Z,15.60
2023-05-04T07:20:26.514Z,15.34
2023-05-04T07:23:01.297Z,15.20
2023-05-04T07:25:29.372Z,15.12
2023-05-04T07:27:58.473Z,15.10
2023-05-04T07:30:26.475Z,15.08
2023-05-04T07:32:54.444Z,15.00
2023-05-04T07:35:22.837Z,15.00
2023-05-04T07:37:50.818Z,15.00
2023-05-04T07:40:18.809Z,15.10
2023-05-04T07:42:46.781Z,15.06
2023-05-04T07:45:17.116Z,15.00
2023-05-04T07:47:45.070Z,15.00
2023-05-04T07:50:14.119Z,15.00
2023-05-04T07:52:42.741Z,15.00
2023-05-04T07:55:10.532Z,15.10
2023-05-04T07:57:38.368Z,15.00
2023-05-04T08:00:07.763Z,15.10
2023-05-04T08:02:41.455Z,15.10
2023-05-04T08:05:10.086Z,15.20
2023-05-04T08:07:37.801Z,15.30
2023-05-04T08:10:06.255Z,15.40
2023-05-04T08:12:34.120Z,15.50
2023-05-04T08:15:02.265Z,15.50
2023-05-04T08:17:30.551Z,15.40
2023-05-04T08:19:58.422Z,15.40
2023-05-04T08:22:26.520Z,15.40
2023-05-04T08:24:54.390Z,15.40
2023-05-04T08:27:22.310Z,15.50
2023-05-04T08:29:50.070Z,15.50
2023-05-04T08:32:17.867Z,15.60
2023-05-04T08:34:45.718Z,15.72
2023-05-04T08:37:14.837Z,15.90
2023-05-04T08:39:42.562Z,15.92
2023-05-04T08:42:11.025Z,16.00
2023-05-04T08:44:38.910Z,16.00
2023-05-04T08:47:06.783Z,15.80
2023-05-04T08:49:34.655Z,15.80
2023-05-04T08:52:08.446Z,15.90
2023-05-04T08:54:37.272Z,15.90
2023-05-04T08:57:05.761Z,15.90
2023-05-04T08:59:33.553Z,15.94
2023-05-04T09:02:01.793Z,16.00
2023-05-04T09:04:31.690Z,16.00
2023-05-04T09:06:59.478Z,16.00
2023-05-04T09:09:29.364Z,16.00
2023-05-04T09:11:58.966Z,16.00
2023-05-04T09:14:33.772Z,16.10
2023-05-04T09:17:03.478Z,16.00
2023-05-04T09:19:34.778Z,16.00
2023-05-04T09:22:15.203Z,16.10
2023-05-04T09:24:44.377Z,16.26
2023-05-04T09:27:15.916Z,16.34
2023-05-04T09:29:44.426Z,16.30
2023-05-04T09:32:15.886Z,16.40
2023-05-04T09:34:49.702Z,16.40
2023-05-04T09:37:22.257Z,16.20
2023-05-04T09:39:59.078Z,16.12
2023-05-04T09:42:27.094Z,16.10
2023-05-04T09:45:11.000Z,16.10
2023-05-04T09:47:41.186Z,16.20
2023-05-04T09:50:20.687Z,16.20
2023-05-04T09:52:50.327Z,16.10
2023-05-04T09:55:20.074Z,16.10
2023-05-04T09:57:50.701Z,16.00
2023-05-04T10:00:19.596Z,16.00
2023-05-04T10:02:48.306Z,16.00
2023-05-04T10:05:18.505Z,16.00
2023-05-04T10:07:46.831Z,16.00
2023-05-04T10:10:15.905Z,16.10
2023-05-04T10:12:46.938Z,16.12
2023-05-04T10:15:16.201Z,16.20
2023-05-04T10:18:00.400Z,16.20
2023-05-04T10:21:08.102Z,16.10
2023-05-04T10:24:02.657Z,16.10
2023-05-04T10:26:59.580Z,16.20
2023-05-04T10:29:31.079Z,16.34
2023-05-04T10:31:59.875Z,16.40
2023-05-04T10:34:33.046Z,16.40
2023-05-04T10:37:05.835Z,16.48
2023-05-04T10:39:36.310Z,16.60
2023-05-04T10:42:07.033Z,16.60
2023-05-04T10:44:48.680Z,16.70
2023-05-04T10:47:38.137Z,16.70
2023-05-04T10:50:16.008Z,16.70
2023-05-04T10:52:53.915Z,16.70
2023-05-04T10:55:22.512Z,16.80
2023-05-04T10:57:54.609Z,16.90
2023-05-04T11:00:24.551Z,16.92
2023-05-04T11:03:02.905Z,17.00
2023-05-04T11:05:50.790Z,17.00
2023-05-04T11:08:21.928Z,16.96
2023-05-04T11:11:02.908Z,17.00
2023-05-04T11:13:34.312Z,17.10
2023-05-04T11:16:02.878Z,17.20
2023-05-04T11:18:35.653Z,17.30
2023-05-04T11:21:03.990Z,17.30
2023-05-04T11:23:34.192Z,17.26
2023-05-04T11:26:12.481Z,17.38
2023-05-04T11:28:40.536Z,17.40
2023-05-04T11:31:15.768Z,17.40
2023-05-04T11:33:52.621Z,17.40
2023-05-04T11:36:22.755Z,17.50
2023-05-04T11:38:51.084Z,17.54
2023-05-04T11:41:21.537Z,17.60
2023-05-04T11:43:50.416Z,17.70
2023-05-04T11:46:18.827Z,17.76
2023-05-04T11:48:47.637Z,17.80
2023-05-04T11:51:15.410Z,17.90
2023-05-04T11:53:43.237Z,18.00
2023-05-04T11:56:11.166Z,18.00
2023-05-04T11:58:39.155Z,18.06
2023-05-04T12:01:06.916Z,18.20
2023-05-04T12:03:52.985Z,18.10
2023-05-04T12:06:34.538Z,18.20
2023-05-04T12:09:05.836Z,18.30
2023-05-04T12:11:35.825Z,18.40
2023-05-04T12:14:17.329Z,18.40
2023-05-04T12:16:57.882Z,18.50
2023-05-04T12:19:26.144Z,18.70
2023-05-04T12:21:57.950Z,18.72
2023-05-04T12:24:27.808Z,18.90
2023-05-04T12:26:55.685Z,19.04
2023-05-04T12:29:23.672Z,19.12
2023-05-04T12:31:53.431Z,19.40
2023-05-04T12:34:21.364Z,19.48
2023-05-04T12:36:51.127Z,19.60
2023-05-04T12:39:21.101Z,19.80
2023-05-04T12:41:48.879Z,20.00
2023-05-04T12:44:17.172Z,20.18
2023-05-04T12:46:44.994Z,20.20
2023-05-04T12:49:14.719Z,20.20
2023-05-04T12:51:43.580Z,20.30
2023-05-04T12:54:11.566Z,20.30
2023-05-04T12:56:39.897Z,20.50
2023-05-04T12:59:07.695Z,20.60
2023-05-04T13:01:35.586Z,20.70
2023-05-04T13:04:03.496Z,20.80
2023-05-04T13:06:31.390Z,20.90
2023-05-04T13:09:04.010Z,21.00
2023-05-04T13:11:32.861Z,21.20
2023-05-04T13:14:01.100Z,21.46
2023-05-04T13:16:30.707Z,21.60
2023-05-04T13:18:58.742Z,21.80
2023-05-04T13:21:26.471Z,21.80
2023-05-04T13:23:54.579Z,22.00
2023-05-04T13:26:22.505Z,22.30
2023-05-04T13:28:51.440Z,22.50
2023-05-04T13:31:19.357Z,22.70
2023-05-04T13:33:47.162Z,22.92
2023-05-04T13:36:14.914Z,23.10
2023-05-04T13:38:42.652Z,23.44
2023-05-04T13:41:10.430Z,23.80
2023-05-04T13:43:38.839Z,24.24
2023-05-04T13:46:06.579Z,25.08
2023-05-04T13:48:34.376Z,26.62
2023-05-04T13:51:05.265Z,28.74
2023-05-04T13:53:33.025Z,30.88
2023-05-04T13:56:01.076Z,32.34
2023-05-04T13:58:28.936Z,34.10
2023-05-04T14:00:57.837Z,35.06
2023-05-04T14:03:28.041Z,35.82
2023-05-04T14:05:56.278Z,36.36
2023-05-04T14:08:25.395Z,37.78
2023-05-04T14:10:53.166Z,38.22
2023-05-04T14:13:21.215Z,39.66
2023-05-04T14:15:49.479Z,41.22
2023-05-04T14:18:18.348Z,42.40
2023-05-04T14:20:46.195Z,43.24
2023-05-04T14:23:13.980Z,43.70
2023-05-04T14:25:42.283Z,44.22
2023-05-04T14:28:10.092Z,43.08
2023-05-04T14:30:37.937Z,41.62
2023-05-04T14:33:06.160Z,42.36
2023-05-04T14:35:37.498Z,41.78
2023-05-04T14:38:05.342Z,39.76
2023-05-04T14:40:33.122Z,36.56
2023-05-04T14:43:01.154Z,34.12
2023-05-04T14:45:29.045Z,32.66
2023-05-04T14:47:57.099Z,31.08
2023-05-04T14:50:25.817Z,29.74
2023-05-04T14:52:53.700Z,28.80
2023-05-04T14:55:21.495Z,27.80
2023-05-04T14:57:50.952Z,26.72
2023-05-04T15:00:19.959Z,25.66
2023-05-04T15:02:47.810Z,24.86
2023-05-04T15:05:16.483Z,24.26
2023-05-04T15:07:45.723Z,23.70
2023-05-04T15:10:14.768Z,23.12
2023-05-04T15:12:43.273Z,22.26
2023-05-04T15:15:12.650Z,21.86
2023-05-04T15:17:40.528Z,21.60
2023-05-04T15:20:09.819Z,21.10
2023-05-04T15:22:38.024Z,20.84
2023-05-04T15:25:06.559Z,20.60
2023-05-04T15:27:34.902Z,20.50
2023-05-04T15:30:02.753Z,20.24
2023-05-04T15:32:30.652Z,20.02
2023-05-04T15:35:05.467Z,19.90
2023-05-04T15:37:34.283Z,19.90
2023-05-04T15:40:02.884Z,19.80
2023-05-04T15:42:30.788Z,19.60
2023-05-04T15:44:58.615Z,19.44
2023-05-04T15:47:26.913Z,19.30
2023-05-04T15:49:54.715Z,19.20
2023-05-04T15:52:22.501Z,19.10
2023-05-04T15:54:50.377Z,19.10
2023-05-04T15:57:18.132Z,19.10
2023-05-04T15:59:47.689Z,19.00
2023-05-04T16:02:16.072Z,19.00
2023-05-04T16:04:44.050Z,18.90
2023-05-04T16:07:11.807Z,18.80
2023-05-04T16:09:39.576Z,18.70
2023-05-04T16:12:07.972Z,18.60
2023-05-04T16:14:36.189Z,18.50
2023-05-04T16:17:04.041Z,18.50
2023-05-04T16:19:31.967Z,18.50
2023-05-04T16:21:59.794Z,18.40
2023-05-04T16:24:27.516Z,18.40
2023-05-04T16:26:55.296Z,18.40
2023-05-04T16:29:23.906Z,18.30
2023-05-04T16:31:51.799Z,18.30
2023-05-04T16:34:19.517Z,18.30
2023-05-04T16:36:47.188Z,18.30
2023-05-04T16:39:16.448Z,18.20
2023-05-04T16:41:46.692Z,18.16
2023-05-04T16:44:15.020Z,18.10
2023-05-04T16:46:42.871Z,18.00
2023-05-04T16:49:12.541Z,17.90
2023-05-04T16:51:42.863Z,17.90
2023-05-04T16:54:10.858Z,17.88
2023-05-04T16:56:38.810Z,17.80
2023-05-04T16:59:06.673Z,17.60
2023-05-04T17:01:34.879Z,17.70
2023-05-04T17:04:02.935Z,17.70
2023-05-04T17:06:36.890Z,17.70
2023-05-04T17:09:05.954Z,17.70
2023-05-04T17:11:34.535Z,17.70
2023-05-04T17:14:03.616Z,17.70
2023-05-04T17:16:31.542Z,17.60
2023-05-04T17:18:59.378Z,17.60
2023-05-04T17:21:27.196Z,17.50
2023-05-04T17:23:54.909Z,17.50
2023-05-04T17:26:22.653Z,17.40
2023-05-04T17:28:51.666Z,17.36
2023-05-04T17:31:19.504Z,17.30
2023-05-04T17:33:47.356Z,17.20
2023-05-04T17:36:15.279Z,17.20
2023-05-04T17:38:43.162Z,17.20
2023-05-04T17:41:11.007Z,17.20
2023-05-04T17:43:38.979Z,17.20
2023-05-04T17:46:07.083Z,17.10
2023-05-04T17:48:36.413Z,17.00
2023-05-04T17:51:08.906Z,17.00
2023-05-04T17:53:36.740Z,17.00
2023-05-04T17:56:04.936Z,17.00
2023-05-04T17:58:32.694Z,17.00
2023-05-04T18:01:00.700Z,16.90
2023-05-04T18:03:28.716Z,16.82
2023-05-04T18:05:56.578Z,16.78
2023-05-04T18:08:24.352Z,16.68
2023-05-04T18:10:52.118Z,16.56
2023-05-04T18:13:20.029Z,16.42
2023-05-04T18:15:48.031Z,16.40
2023-05-04T18:18:16.013Z,16.38
2023-05-04T18:20:43.864Z,16.30
2023-05-04T18:23:11.672Z,16.30
2023-05-04T18:25:39.396Z,16.22
2023-05-04T18:28:08.042Z,16.20
2023-05-04T18:30:36.005Z,16.10
2023-05-04T18:33:03.827Z,16.00
2023-05-04T18:35:31.718Z,16.00
2023-05-04T18:37:59.479Z,16.00
2023-05-04T18:40:27.606Z,15.90
2023-05-04T18:42:55.353Z,15.86
2023-05-04T18:45:23.209Z,15.80
2023-05-04T18:47:51.114Z,15.70
2023-05-04T18:50:19.345Z,15.70
2023-05-04T18:52:47.064Z,15.60
2023-05-04T18:55:14.931Z,15.60
2023-05-04T18:57:42.673Z,15.50
2023-05-04T19:00:11.740Z,15.40
2023-05-04T19:02:39.673Z,15.40
2023-05-04T19:05:07.994Z,15.30
2023-05-04T19:07:35.773Z,15.30
2023-05-04T19:10:04.188Z,15.20
2023-05-04T19:12:32.118Z,15.20
2023-05-04T19:15:00.182Z,15.10
2023-05-04T19:17:27.936Z,15.10
2023-05-04T19:19:57.104Z,15.00
2023-05-04T19:22:24.956Z,14.90
2023-05-04T19:24:52.717Z,14.90
2023-05-04T19:27:20.580Z,14.80
2023-05-04T19:29:48.516Z,14.80
2023-05-04T19:32:24.444Z,14.72
2023-05-04T19:34:53.022Z,14.70
2023-05-04T19:37:21.321Z,14.70
2023-05-04T19:39:49.761Z,14.60
2023-05-04T19:42:17.799Z,14.60
2023-05-04T19:44:45.581Z,14.50
2023-05-04T19:47:13.692Z,14.48
2023-05-04T19:49:41.858Z,14.40
2023-05-04T19:52:09.769Z,14.40
2023-05-04T19:54:38.384Z,14.30
2023-05-04T19:57:06.425Z,14.30
2023-05-04T19:59:34.509Z,14.20
2023-05-04T20:02:02.563Z,14.16
2023-05-04T20:04:30.584Z,14.10
2023-05-04T20:06:58.437Z,14.10
2023-05-04T20:09:26.265Z,14.04
2023-05-04T20:11:54.168Z,14.00
2023-05-04T20:14:24.478Z,14.00
2023-05-04T20:16:52.648Z,14.00
2023-05-04T20:19:20.951Z,13.96
2023-05-04T20:21:48.937Z,13.90
2023-05-04T20:24:18.187Z,13.86
2023-05-04T20:26:46.045Z,13.80
2023-05-04T20:29:13.945Z,13.70
2023-05-04T20:31:41.804Z,13.70
2023-05-04T20:34:09.615Z,13.70
2023-05-04T20:36:37.533Z,13.66
2023-05-04T20:39:06.827Z,13.60
2023-05-04T20:41:34.716Z,13.54
2023-05-04T20:44:02.539Z,13.50
2023-05-04T20:46:31.892Z,13.50
2023-05-04T20:49:02.718Z,13.40
2023-05-04T20:51:31.195Z,13.40
2023-05-04T20:53:58.991Z,13.30
2023-05-04T20:56:27.335Z,13.30
2023-05-04T20:58:55.671Z,13.30
2023-05-04T21:01:23.501Z,13.20
2023-05-04T21:03:52.428Z,13.16
2023-05-04T21:06:20.348Z,13.10
2023-05-04T21:08:48.062Z,13.10
2023-05-04T21:11:15.817Z,13.10
2023-05-04T21:13:43.612Z,13.00
2023-05-04T21:16:11.581Z,13.00
2023-05-04T21:18:39.577Z,12.90
2023-05-04T21:21:07.408Z,12.90
2023-05-04T21:23:35.396Z,12.90
2023-05-04T21:26:04.492Z,12.88
2023-05-04T21:28:32.429Z,12.80
2023-05-04T21:31:00.574Z,12.80
2023-05-04T21:33:28.487Z,12.78
2023-05-04T21:35:56.249Z,12.70
2023-05-04T21:38:24.107Z,12.70
2023-05-04T21:40:51.879Z,12.66
2023-05-04T21:43:19.649Z,12.60
2023-05-04T21:45:47.454Z,12.62
2023-05-04T21:48:15.614Z,12.60
2023-05-04T21:50:43.433Z,12.60
2023-05-04T21:53:11.279Z,12.58
2023-05-04T21:55:39.045Z,12.54
2023-05-04T21:58:07.524Z,12.52
2023-05-04T22:00:35.424Z,12.50
2023-05-04T22:03:03.454Z,12.50
2023-05-04T22:05:31.320Z,12.40
2023-05-04T22:08:00.953Z,12.40
2023-05-04T22:10:29.193Z,12.40
2023-05-04T22:12:56.995Z,12.40
2023-05-04T22:15:31.652Z,12.34
2023-05-04T22:18:06.010Z,12.30
2023-05-04T22:20:34.694Z,12.30
2023-05-04T22:23:02.674Z,12.30
2023-05-04T22:25:31.495Z,12.30
2023-05-04T22:27:59.868Z,12.28
2023-05-04T22:30:28.291Z,12.20
2023-05-04T22:32:56.457Z,12.20
2023-05-04T22:35:24.420Z,12.10
2023-05-04T22:37:52.441Z,12.10
2023-05-04T22:40:21.435Z,12.10
2023-05-04T22:42:49.324Z,12.00
2023-05-04T22:45:18.352Z,12.00
2023-05-04T22:47:46.850Z,12.00
2023-05-04T22:50:14.897Z,12.00
2023-05-04T22:52:42.876Z,12.00
2023-05-04T22:55:10.690Z,11.90
2023-05-04T22:57:38.474Z,11.90
2023-05-04T23:00:07.884Z,11.90
2023-05-04T23:02:36.387Z,11.80
2023-05-04T23:05:04.926Z,11.80
2023-05-04T23:07:32.725Z,11.80
2023-05-04T23:10:00.709Z,11.80
2023-05-04T23:12:28.569Z,11.80
2023-05-04T23:14:56.924Z,11.70
2023-05-04T23:17:24.761Z,11.70
2023-05-04T23:19:52.833Z,11.70
2023-05-04T23:22:20.525Z,11.62
2023-05-04T23:24:48.786Z,11.60
2023-05-04T23:27:16.647Z,11.60
2023-05-04T23:29:44.400Z,11.60
2023-05-04T23:32:12.105Z,11.56
2023-05-04T23:34:39.887Z,11.50
2023-05-04T23:37:07.657Z,11.50
2023-05-04T23:39:35.771Z,11.50
2023-05-04T23:42:03.611Z,11.50
2023-05-04T23:44:31.404Z,11.50
2023-05-04T23:46:59.178Z,11.48
2023-05-04T23:49:26.883Z,11.40
2023-05-04T23:51:54.716Z,11.40
2023-05-04T23:54:22.445Z,11.40
2023-05-04T23:56:50.534Z,11.38
2023-05-04T23:59:18.404Z,11.36
